Time;durP1;ratioP1;P1;durP2;ratioP2;P2;SDS_P1;SDS_P2;PMS_P1;PMS_P2;Temp;Humidity;BMP_temperature;BMP_pressure;BME280_temperature;BME280_humidity;BME280_pressure;Samples;Min_cycle;Max_cycle;Signal;HPM_P1;HPM_P2
2022/09/25 00:01:23;;;;;;;21.98;16.13;;;;;;;14.31;78.20;96277.63;6198676;23;20104;-90
2022/09/25 00:03:51;;;;;;;15.95;12.68;;;;;;;14.30;78.08;96276.03;6199144;23;20069;-89
2022/09/25 00:06:21;;;;;;;21.02;15.77;;;;;;;14.30;78.09;96277.81;6197739;23;20051;-86
2022/09/25 00:08:50;;;;;;;24.40;18.70;;;;;;;14.28;77.81;96272.81;6198087;23;20088;-89
2022/09/25 00:11:21;;;;;;;22.83;16.95;;;;;;;14.25;77.81;96273.22;6197500;23;20017;-87
2022/09/25 00:13:49;;;;;;;22.98;17.83;;;;;;;14.22;77.92;96268.41;6198027;23;20044;-86
2022/09/25 00:16:19;;;;;;;21.40;16.08;;;;;;;14.19;78.24;96271.44;6197866;23;20469;-87
2022/09/25 00:21:35;;;;;;;21.05;16.38;;;;;;;14.14;77.69;96263.41;6196927;23;20032;-90
2022/09/25 00:24:07;;;;;;;19.40;15.57;;;;;;;14.11;77.99;96261.22;6200989;23;20021;-89
2022/09/25 00:26:37;;;;;;;20.17;15.68;;;;;;;14.07;78.13;96267.91;6198882;23;20021;-89
2022/09/25 00:29:09;;;;;;;18.48;14.88;;;;;;;14.07;78.48;96273.16;6197643;23;20079;-86
2022/09/25 00:31:37;;;;;;;18.00;14.35;;;;;;;14.08;78.68;96270.31;6196778;23;20092;-83
2022/09/25 00:34:07;;;;;;;18.52;14.35;;;;;;;14.11;79.01;96271.72;6197819;23;20017;-85
2022/09/25 00:36:35;;;;;;;17.05;14.02;;;;;;;14.13;78.72;96274.94;6198329;23;20021;-88
2022/09/25 00:39:03;;;;;;;17.75;14.55;;;;;;;14.12;78.59;96278.56;6197845;23;20516;-90
2022/09/25 00:41:31;;;;;;;15.82;12.73;;;;;;;14.15;78.73;96278.16;6196222;23;20105;-85
2022/09/25 00:44:01;;;;;;;16.05;13.00;;;;;;;14.18;78.94;96282.97;6197439;23;20021;-86
2022/09/25 00:46:31;;;;;;;15.27;11.90;;;;;;;14.23;79.02;96283.13;6197146;23;20087;-91
2022/09/25 00:49:02;;;;;;;12.50;10.75;;;;;;;14.24;78.85;96276.88;6195120;23;20457;-84
2022/09/25 00:51:39;;;;;;;14.98;12.13;;;;;;;14.26;79.08;96279.28;6194248;23;20070;-88
2022/09/25 00:54:15;;;;;;;14.95;12.63;;;;;;;14.27;78.92;96273.81;6166549;23;20023;-89
2022/09/25 00:56:46;;;;;;;18.13;14.32;;;;;;;14.27;78.64;96276.44;6170149;23;20024;-89
2022/09/25 00:59:16;;;;;;;12.40;10.20;;;;;;;14.27;78.92;96271.19;6169712;23;20033;-90
2022/09/25 01:01:45;;;;;;;13.02;10.60;;;;;;;14.29;78.78;96263.91;6167921;23;20021;-90
2022/09/25 01:04:14;;;;;;;13.77;11.35;;;;;;;14.32;78.33;96267.91;6167336;23;20017;-85
2022/09/25 01:06:44;;;;;;;13.88;12.18;;;;;;;14.32;78.05;96273.16;6166989;23;20231;-89
2022/09/25 01:09:12;;;;;;;16.92;13.35;;;;;;;14.28;77.29;96257.06;6164751;23;20485;-86
2022/09/25 01:11:39;;;;;;;14.05;11.73;;;;;;;14.25;77.31;96252.22;6162892;23;20022;-85
2022/09/25 01:14:10;;;;;;;11.85;10.45;;;;;;;14.27;77.55;96255.44;6164777;23;20069;-85
2022/09/25 01:16:43;;;;;;;12.90;11.45;;;;;;;14.28;77.17;96256.25;6163764;23;20331;-88
2022/09/25 01:19:24;;;;;;;12.55;10.05;;;;;;;14.27;77.23;96247.56;6165766;23;20018;-85
2022/09/25 01:21:57;;;;;;;12.70;10.68;;;;;;;14.24;77.18;96240.13;6163249;23;20014;-88
2022/09/25 01:24:44;;;;;;;15.07;12.80;;;;;;;14.18;76.73;96241.78;6163714;23;20102;-86
2022/09/25 01:27:32;;;;;;;15.23;12.70;;;;;;;14.09;76.66;96247.50;6163860;23;20018;-88
2022/09/25 01:30:08;;;;;;;13.45;11.52;;;;;;;14.05;77.21;96235.84;6162643;23;20108;-85
2022/09/25 01:32:45;;;;;;;16.25;12.88;;;;;;;13.97;76.97;96234.25;6163098;23;20049;-85
2022/09/25 01:35:18;;;;;;;16.52;13.10;;;;;;;13.88;77.08;96228.47;6162718;23;20073;-85
2022/09/25 01:37:53;;;;;;;14.70;12.18;;;;;;;13.83;77.66;96238.78;6164226;23;20484;-82
2022/09/25 01:40:26;;;;;;;14.10;11.20;;;;;;;13.77;78.08;96234.38;6163612;23;20048;-85
2022/09/25 01:42:56;;;;;;;;;;;;;;;13.78;78.26;96233.38;6163920;23;20020;-82
2022/09/25 01:45:31;;;;;;;12.30;10.35;;;;;;;13.77;78.41;96244.88;6162955;23;19917;-83
2022/09/25 01:48:02;;;;;;;13.05;11.15;;;;;;;13.77;78.27;96237.00;6163109;23;20020;-88
2022/09/25 01:50:35;;;;;;;14.00;11.93;;;;;;;13.76;78.09;96243.28;6161991;23;20018;-83
2022/09/25 01:53:09;;;;;;;13.05;10.27;;;;;;;13.76;78.54;96240.66;6170834;23;20018;-89
2022/09/25 01:55:43;;;;;;;12.23;10.13;;;;;;;13.77;78.51;96239.63;6172559;23;20053;-86
2022/09/25 01:58:16;;;;;;;12.25;10.82;;;;;;;13.79;78.75;96240.22;6172317;23;20469;-86
2022/09/25 02:00:51;;;;;;;12.80;11.40;;;;;;;13.80;78.96;96239.22;6171363;23;20021;-87
2022/09/25 02:03:25;;;;;;;12.43;10.80;;;;;;;13.83;78.48;96238.78;6170575;23;20014;-87
2022/09/25 02:05:57;;;;;;;12.65;10.80;;;;;;;13.84;78.18;96234.34;6169096;23;20100;-89
2022/09/25 02:08:30;;;;;;;12.70;10.45;;;;;;;13.88;77.60;96248.66;6169901;23;20020;-85
2022/09/25 02:11:01;;;;;;;12.55;10.60;;;;;;;13.87;77.22;96247.84;6168987;23;20021;-86
2022/09/25 02:13:36;;;;;;;12.27;10.38;;;;;;;13.89;77.39;96245.81;6169722;23;20037;-87
2022/09/25 02:16:10;;;;;;;11.75;10.52;;;;;;;13.88;76.72;96252.06;6167281;23;20393;-89
2022/09/25 02:21:33;;;;;;;16.70;11.68;;;;;;;13.78;76.53;96251.75;6167458;23;20013;-85
2022/09/25 02:24:06;;;;;;;12.35;10.45;;;;;;;13.77;77.22;96250.13;6166759;23;20064;-86
2022/09/25 02:26:36;;;;;;;14.80;11.75;;;;;;;13.74;76.46;96245.31;6166210;23;20089;-85
2022/09/25 02:29:05;;;;;;;14.45;11.65;;;;;;;13.67;76.69;96247.16;6166070;23;20018;-86
2022/09/25 02:31:39;;;;;;;15.65;12.52;;;;;;;13.63;76.96;96243.34;6165962;23;20021;-86
2022/09/25 02:34:07;;;;;;;12.13;10.77;;;;;;;13.57;77.03;96245.78;6169185;23;20100;-85
2022/09/25 02:36:43;;;;;;;14.18;11.25;;;;;;;13.56;77.19;96238.94;6167675;23;20017;-83
2022/09/25 02:39:15;;;;;;;14.02;11.95;;;;;;;13.55;77.08;96244.38;6168834;23;20017;-87
2022/09/25 02:42:01;;;;;;;14.05;11.35;;;;;;;13.52;77.46;96247.44;6168264;23;20027;-85
2022/09/25 02:44:39;;;;;;;14.73;12.20;;;;;;;13.52;77.36;96250.84;6166032;23;20013;-83
2022/09/25 02:47:22;;;;;;;10.73;9.63;;;;;;;13.56;78.01;96241.56;6168139;23;20425;-82
2022/09/25 02:49:59;;;;;;;13.55;11.35;;;;;;;13.56;77.25;96240.75;6170594;23;20043;-89
2022/09/25 02:52:34;;;;;;;14.10;11.52;;;;;;;13.53;77.09;96238.53;6177827;23;20069;-90
2022/09/25 02:55:07;;;;;;;14.30;11.73;;;;;;;13.50;77.25;96239.78;6177860;23;20028;-91
2022/09/25 02:57:43;;;;;;;15.25;11.75;;;;;;;13.48;77.39;96239.16;6176813;23;20096;-88
2022/09/25 03:00:12;;;;;;;13.63;11.90;;;;;;;13.47;77.57;96240.19;6174531;23;20052;-88
2022/09/25 03:02:43;;;;;;;13.88;11.68;;;;;;;13.47;77.74;96240.19;6174450;23;20013;-86
2022/09/25 03:05:20;;;;;;;17.80;12.40;;;;;;;13.47;77.52;96239.38;6175003;23;20044;-88
2022/09/25 03:10:36;;;;;;;13.05;10.23;;;;;;;13.46;78.06;96230.72;6173928;23;20096;-88
2022/09/25 03:13:16;;;;;;;11.38;10.18;;;;;;;13.55;79.47;96232.06;6175137;23;20339;-85
2022/09/25 03:15:46;;;;;;;11.30;9.48;;;;;;;13.59;78.71;96228.03;6176523;23;20020;-84
2022/09/25 03:18:16;;;;;;;11.48;10.27;;;;;;;13.65;78.70;96226.41;6176429;23;20081;-89
2022/09/25 03:20:44;;;;;;;12.55;10.10;;;;;;;13.70;78.80;96234.44;6175773;23;20020;-89
2022/09/25 03:23:12;;;;;;;15.73;11.15;;;;;;;13.70;78.01;96231.81;6179158;23;20045;-84
2022/09/25 03:25:40;;;;;;;11.32;9.85;;;;;;;13.72;78.07;96239.47;6175314;23;20017;-90
2022/09/25 03:28:16;;;;;;;12.23;10.25;;;;;;;13.74;78.13;96240.84;6171755;23;20017;-87
2022/09/25 03:30:44;;;;;;;17.10;12.07;;;;;;;13.73;78.01;96239.25;6171303;23;20354;-89
2022/09/25 03:33:13;;;;;;;15.27;13.38;;;;;;;13.71;77.88;96235.22;6170901;23;20327;-83
2022/09/25 03:35:42;;;;;;;11.32;10.13;;;;;;;13.70;78.35;96231.81;6168609;23;20021;-89
2022/09/25 03:38:11;;;;;;;11.50;9.98;;;;;;;13.69;78.14;96221.56;6168308;23;20021;-88
2022/09/25 03:40:40;;;;;;;11.70;10.40;;;;;;;13.67;77.91;96231.44;6166415;23;20021;-86
2022/09/25 03:43:08;;;;;;;10.23;9.13;;;;;;;13.70;78.65;96233.63;6168846;23;20022;-88
2022/09/25 03:45:34;;;;;;;13.23;10.25;;;;;;;13.73;78.61;96222.72;6168901;23;20565;-88
2022/09/25 03:48:02;;;;;;;9.77;8.77;;;;;;;13.74;78.89;96222.50;6172757;23;20036;-89
2022/09/25 03:50:30;;;;;;;12.02;10.27;;;;;;;13.75;78.99;96218.88;6172369;23;20028;-90
2022/09/25 03:52:59;;;;;;;11.43;10.25;;;;;;;13.77;78.87;96224.72;6172515;23;20496;-88
2022/09/25 03:55:27;;;;;;;16.50;11.30;;;;;;;13.74;78.19;96219.88;6171137;23;20014;-88
2022/09/25 03:57:55;;;;;;;13.65;11.25;;;;;;;13.71;77.72;96219.50;6170553;23;20100;-88
2022/09/25 04:00:23;;;;;;;13.70;10.73;;;;;;;13.68;78.06;96220.72;6169210;23;20108;-86
2022/09/25 04:02:51;;;;;;;10.95;9.85;;;;;;;13.69;78.70;96221.56;6169746;23;20022;-88
2022/09/25 04:05:18;;;;;;;8.93;7.90;;;;;;;13.71;78.97;96214.25;6168609;23;20017;-85
2022/09/25 04:07:47;;;;;;;10.68;9.00;;;;;;;13.76;79.37;96217.06;6167557;23;20073;-83
2022/09/25 04:10:16;;;;;;;10.32;9.23;;;;;;;13.80;79.19;96215.63;6166204;23;20041;-86
2022/09/25 04:12:44;;;;;;;12.40;10.50;;;;;;;13.80;78.46;96213.81;6166719;23;20014;-83
2022/09/25 04:15:12;;;;;;;12.45;10.60;;;;;;;13.79;77.90;96212.19;6164782;23;20037;-85
2022/09/25 04:17:40;;;;;;;14.20;10.65;;;;;;;13.78;77.20;96215.84;6163811;23;20020;-87
2022/09/25 04:20:08;;;;;;;11.57;9.45;;;;;;;13.75;77.53;96210.19;6163060;23;20021;-87
2022/09/25 04:22:36;;;;;;;9.25;8.32;;;;;;;13.76;77.91;96214.44;6165910;23;20028;-83
2022/09/25 04:25:04;;;;;;;10.52;9.43;;;;;;;13.76;77.48;96212.63;6166497;23;20017;-86
2022/09/25 04:27:33;;;;;;;9.90;8.88;;;;;;;13.76;77.13;96217.06;6166439;23;20018;-83
2022/09/25 04:30:01;;;;;;;9.82;8.75;;;;;;;13.78;77.41;96217.66;6165159;23;20014;-83
2022/09/25 04:35:14;;;;;;;9.80;8.80;;;;;;;13.80;77.38;96229.53;6166163;23;20018;-85
2022/09/25 04:37:42;;;;;;;8.93;8.02;;;;;;;13.82;77.14;96231.97;6166556;23;20331;-84
2022/09/25 04:40:11;;;;;;;10.10;8.68;;;;;;;13.84;77.59;96231.72;6166302;23;20013;-86
2022/09/25 04:42:40;;;;;;;10.95;9.02;;;;;;;13.83;77.08;96236.16;6166605;23;20049;-85
2022/09/25 04:45:09;;;;;;;10.50;9.40;;;;;;;13.83;76.41;96232.75;6169353;23;20506;-86
2022/09/25 04:47:37;;;;;;;10.77;9.52;;;;;;;13.81;76.97;96233.75;6170795;23;20025;-90
2022/09/25 04:50:05;;;;;;;10.75;9.65;;;;;;;13.79;76.55;96237.59;6170520;23;20109;-89
2022/09/25 04:52:34;;;;;;;9.95;8.63;;;;;;;13.77;77.09;96235.22;6171047;23;20037;-85
2022/09/25 04:55:03;;;;;;;11.80;9.57;;;;;;;13.78;76.80;96223.69;6170094;23;20017;-90
2022/09/25 04:57:30;;;;;;;11.60;9.80;;;;;;;13.77;76.22;96219.47;6169078;23;20433;-86
2022/09/25 05:00:20;;;;;;;12.35;9.98;;;;;;;13.72;75.99;96219.28;6166216;23;20037;-86
2022/09/25 05:02:48;;;;;;;12.68;10.18;;;;;;;13.64;75.83;96218.75;6166936;23;20021;-83
2022/09/25 05:05:18;;;;;;;13.50;10.63;;;;;;;13.55;76.07;96218.97;6166491;23;20017;-84
2022/09/25 05:07:53;;;;;;;16.92;11.98;;;;;;;13.45;76.60;96215.22;6166630;23;20022;-86
2022/09/25 05:10:21;;;;;;;16.95;12.52;;;;;;;13.35;76.43;96220.91;6167660;23;20013;-84
2022/09/25 05:12:55;;;;;;;13.43;11.15;;;;;;;13.30;77.24;96225.97;6169543;23;20020;-86
2022/09/25 05:15:24;;;;;;;13.98;11.57;;;;;;;13.28;77.21;96220.09;6169772;23;20362;-85
2022/09/25 05:18:00;;;;;;;16.60;12.82;;;;;;;13.25;77.49;96228.34;6171342;23;20021;-83
2022/09/25 05:20:28;;;;;;;15.73;11.60;;;;;;;13.19;77.40;96217.69;6168565;23;20077;-83
2022/09/25 05:22:57;;;;;;;15.32;11.02;;;;;;;13.21;78.00;96227.97;6169512;23;20017;-85
2022/09/25 05:25:26;;;;;;;15.65;11.85;;;;;;;13.25;78.41;96228.34;6168013;23;20018;-83
2022/09/25 05:27:57;;;;;;;14.88;11.25;;;;;;;13.30;77.92;96232.00;6169050;23;20021;-84
2022/09/25 05:30:28;;;;;;;14.05;11.45;;;;;;;13.34;77.76;96224.53;6167699;23;20024;-85
2022/09/25 05:32:58;;;;;;;15.40;11.83;;;;;;;13.35;77.39;96220.91;6168299;23;20014;-84
2022/09/25 05:35:28;;;;;;;13.23;10.50;;;;;;;13.38;77.74;96233.56;6169730;23;20021;-85
2022/09/25 05:37:56;;;;;;;11.98;10.70;;;;;;;13.42;77.54;96226.91;6170592;23;20037;-85
2022/09/25 05:40:24;;;;;;;13.63;10.35;;;;;;;13.44;77.54;96235.34;6170601;23;20017;-85
2022/09/25 05:42:54;;;;;;;12.88;9.75;;;;;;;13.51;77.93;96235.31;6177045;23;20018;-89
2022/09/25 05:45:23;;;;;;;11.48;9.20;;;;;;;13.57;77.95;96230.06;6177000;23;20018;-86
2022/09/25 05:48:01;;;;;;;14.85;10.98;;;;;;;13.57;77.49;96231.88;6176227;23;20041;-85
2022/09/25 05:50:31;;;;;;;11.50;9.60;;;;;;;13.58;77.64;96226.44;6174001;23;20041;-85
2022/09/25 05:52:59;;;;;;;10.40;8.68;;;;;;;13.62;77.85;96220.75;6173558;23;20021;-85
2022/09/25 05:55:36;;;;;;;9.48;8.23;;;;;;;13.66;78.41;96220.13;6173045;23;20018;-86
2022/09/25 05:58:14;;;;;;;8.20;7.22;;;;;;;13.71;78.42;96229.97;6171083;23;20024;-85
2022/09/25 06:00:56;;;;;;;11.00;9.02;;;;;;;13.73;78.08;96220.09;6164475;23;20048;-84
2022/09/25 06:03:28;;;;;;;11.93;8.93;;;;;;;13.76;77.94;96217.06;6165995;23;20018;-84
2022/09/25 06:05:57;;;;;;;11.73;8.82;;;;;;;13.79;77.67;96222.66;6164588;23;20017;-85
2022/09/25 06:08:25;;;;;;;11.63;10.02;;;;;;;13.79;77.05;96219.25;6165846;23;20069;-82
2022/09/25 06:11:00;;;;;;;10.15;8.65;;;;;;;13.80;77.03;96218.25;6165333;23;20484;-82
2022/09/25 06:13:43;;;;;;;10.05;9.05;;;;;;;13.82;77.01;96216.22;6165008;23;20028;-81
2022/09/25 06:16:18;;;;;;;11.27;8.63;;;;;;;13.87;77.00;96212.97;6163633;23;20021;-87
2022/09/25 06:18:47;;;;;;;13.43;9.80;;;;;;;13.90;76.67;96213.31;6164285;23;20021;-81
2022/09/25 06:21:15;;;;;;;12.35;9.38;;;;;;;13.91;76.67;96212.31;6163671;23;20462;-84
2022/09/25 06:23:45;;;;;;;11.27;8.27;;;;;;;13.93;76.67;96217.38;6165389;23;20053;-80
2022/09/25 06:26:14;;;;;;;12.70;9.40;;;;;;;13.93;76.40;96226.03;6163870;23;20104;-87
2022/09/25 06:31:46;;;;;;;11.13;8.70;;;;;;;13.95;76.74;96221.38;6163724;23;20022;-81
2022/09/25 06:34:16;;;;;;;8.48;7.57;;;;;;;13.98;76.62;96226.19;6162870;23;20013;-82
2022/09/25 06:36:44;;;;;;;8.63;7.72;;;;;;;14.00;75.87;96226.78;6163725;23;20339;-78
2022/09/25 06:39:12;;;;;;;7.90;7.18;;;;;;;13.98;75.55;96231.44;6167551;23;20019;-87
2022/09/25 06:41:41;;;;;;;8.55;7.75;;;;;;;13.98;75.78;96231.44;6167899;23;20056;-86
2022/09/25 06:44:10;;;;;;;8.73;7.45;;;;;;;13.94;75.54;96232.88;6171202;23;20029;-85
2022/09/25 06:46:38;;;;;;;6.97;6.38;;;;;;;13.93;75.12;96225.22;6168431;23;20053;-87
2022/09/25 06:49:06;;;;;;;7.72;6.82;;;;;;;13.89;75.28;96227.47;6167821;23;20036;-86
2022/09/25 06:51:38;;;;;;;8.18;6.85;;;;;;;13.88;75.16;96225.84;6167893;23;20022;-83
2022/09/25 06:54:06;;;;;;;9.87;6.10;;;;;;;13.90;75.48;96229.06;6167703;23;20041;-84
2022/09/25 06:56:38;;;;;;;6.25;5.65;;;;;;;13.95;76.15;96236.28;6169942;23;20250;-89
2022/09/25 06:59:07;;;;;;;6.25;5.05;;;;;;;14.00;76.07;96233.84;6169881;23;20072;-89
2022/09/25 07:01:35;;;;;;;6.93;5.47;;;;;;;14.05;75.99;96225.34;6169210;23;20036;-89
2022/09/25 07:04:03;;;;;;;6.57;5.82;;;;;;;14.09;75.44;96226.53;6171578;23;20541;-88
2022/09/25 07:06:33;;;;;;;5.53;5.03;;;;;;;14.15;75.53;96236.19;6169913;23;20026;-88
2022/09/25 07:09:03;;;;;;;6.32;5.72;;;;;;;14.21;75.80;96237.94;6169570;23;20022;-88
2022/09/25 07:11:31;;;;;;;7.63;6.82;;;;;;;14.21;74.59;96236.13;6167956;23;20022;-80
2022/09/25 07:13:58;;;;;;;6.63;6.03;;;;;;;14.22;74.44;96239.53;6167862;23;20072;-80
2022/09/25 07:16:28;;;;;;;6.03;5.43;;;;;;;14.25;74.49;96238.31;6167884;23;20017;-82
2022/09/25 07:18:58;;;;;;;5.50;5.00;;;;;;;14.30;74.93;96241.09;6167309;23;20359;-86
2022/09/25 07:21:29;;;;;;;6.45;5.75;;;;;;;14.35;74.62;96242.06;6163766;23;20022;-81
2022/09/25 07:23:58;;;;;;;6.20;5.60;;;;;;;14.40;74.98;96250.09;6165449;23;20018;-83
2022/09/25 07:26:33;;;;;;;6.53;5.85;;;;;;;14.45;74.48;96246.03;6164397;23;20025;-88
2022/09/25 07:29:11;;;;;;;5.50;4.97;;;;;;;14.48;74.57;96243.78;6164313;23;20474;-85
2022/09/25 07:31:39;;;;;;;6.25;5.22;;;;;;;14.53;74.56;96248.38;6164929;23;20358;-89
2022/09/25 07:34:08;;;;;;;6.50;5.45;;;;;;;14.56;74.22;96248.81;6160424;23;20017;-86
2022/09/25 07:36:38;;;;;;;6.22;5.57;;;;;;;14.58;74.38;96245.94;6162327;23;20025;-90
2022/09/25 07:39:06;;;;;;;6.80;6.10;;;;;;;14.58;73.97;96262.50;6162666;23;20017;-89
2022/09/25 07:41:37;;;;;;;6.40;5.60;;;;;;;14.59;74.03;96255.44;6160415;23;20013;-89
2022/09/25 07:44:06;;;;;;;5.95;5.35;;;;;;;14.60;74.19;96249.94;6160810;23;20017;-89
2022/09/25 07:46:54;;;;;;;7.75;6.60;;;;;;;14.65;73.72;96261.63;6160291;23;20473;-86
2022/09/25 07:49:22;;;;;;;6.90;6.00;;;;;;;14.69;74.02;96263.59;6161332;23;20025;-90
2022/09/25 07:51:51;;;;;;;7.47;6.78;;;;;;;14.72;73.82;96257.94;6159953;23;20073;-89
2022/09/25 07:54:19;;;;;;;6.60;5.45;;;;;;;14.75;73.99;96252.25;6161451;23;20040;-83
2022/09/25 07:56:49;;;;;;;7.03;5.95;;;;;;;14.77;73.82;96255.47;6161100;23;20049;-89
2022/09/25 07:59:18;;;;;;;9.13;8.20;;;;;;;14.78;73.55;96257.09;6161326;23;20104;-82
2022/09/25 08:01:46;;;;;;;10.45;8.77;;;;;;;14.79;72.95;96258.69;6160156;23;20073;-88
2022/09/25 08:04:21;;;;;;;10.75;9.65;;;;;;;14.78;73.01;96262.34;6161014;23;20033;-86
2022/09/25 08:06:49;;;;;;;9.98;8.77;;;;;;;14.77;72.80;96254.66;6188079;23;20056;-81
2022/09/25 08:09:16;;;;;;;10.60;9.52;;;;;;;14.76;73.04;96256.50;6197711;23;20024;-82
2022/09/25 08:11:44;;;;;;;11.60;10.25;;;;;;;14.76;73.07;96251.25;6195346;23;20024;-83
2022/09/25 08:14:14;;;;;;;12.63;10.77;;;;;;;14.78;73.39;96254.47;6195925;23;20084;-82
2022/09/25 08:16:42;;;;;;;11.15;9.48;;;;;;;14.82;73.07;96254.81;6193710;23;20025;-82
2022/09/25 08:19:10;;;;;;;9.55;8.60;;;;;;;14.89;73.45;96257.38;6193616;23;20100;-82
2022/09/25 08:21:37;;;;;;;10.35;8.27;;;;;;;14.94;73.16;96253.09;6195567;23;20029;-82
2022/09/25 08:24:05;;;;;;;10.98;8.93;;;;;;;15.03;73.12;96256.22;6195826;23;20025;-82
2022/09/25 08:26:33;;;;;;;10.63;9.13;;;;;;;15.12;72.63;96247.03;6194172;23;20017;-82
2022/09/25 08:29:00;;;;;;;11.32;10.02;;;;;;;15.20;72.24;96254.63;6196007;23;20032;-82
2022/09/25 08:31:29;;;;;;;10.40;8.95;;;;;;;15.25;71.92;96260.00;6192600;23;20079;-82
2022/09/25 08:33:57;;;;;;;9.75;8.73;;;;;;;15.34;71.75;96257.09;6192158;23;20052;-82
2022/09/25 08:36:44;;;;;;;10.43;9.32;;;;;;;15.53;71.38;96242.91;6192350;23;20088;-82
2022/09/25 08:39:12;;;;;;;11.18;8.73;;;;;;;15.72;71.06;96243.72;6193876;23;20025;-82
2022/09/25 08:41:46;;;;;;;10.32;9.20;;;;;;;15.86;69.32;96241.72;6193613;23;20021;-82
2022/09/25 08:44:21;;;;;;;11.27;8.73;;;;;;;15.93;68.81;96236.34;6194348;23;20025;-82
2022/09/25 08:49:52;;;;;;;11.40;8.50;;;;;;;15.99;69.01;96241.53;6136825;23;20044;-82
2022/09/25 08:52:21;;;;;;;10.07;8.90;;;;;;;16.00;69.40;96229.16;6193359;23;20075;-82
2022/09/25 08:54:50;;;;;;;11.02;9.07;;;;;;;16.06;68.60;96226.44;6194364;23;20412;-82
2022/09/25 08:57:27;;;;;;;10.07;9.02;;;;;;;16.12;69.06;96223.94;6192215;23;20021;-81
2022/09/25 09:00:01;;;;;;;10.93;9.05;;;;;;;16.10;68.82;96223.38;6194743;23;20020;-82
2022/09/25 09:02:38;;;;;;;10.52;9.43;;;;;;;16.06;70.25;96223.00;6194308;23;20103;-81
2022/09/25 09:05:16;;;;;;;10.57;8.82;;;;;;;16.09;69.72;96225.19;6209538;22;20028;-82
2022/09/25 09:07:53;;;;;;;9.88;8.68;;;;;;;16.16;69.40;96219.81;6212908;22;20021;-81
2022/09/25 09:10:30;;;;;;;11.48;8.98;;;;;;;16.21;69.61;96222.59;6212291;22;20035;-81
2022/09/25 09:13:03;;;;;;;11.70;8.95;;;;;;;16.20;69.09;96224.41;6211217;22;20103;-81
2022/09/25 09:15:42;;;;;;;13.82;10.18;;;;;;;16.19;69.39;96225.44;6212770;22;20020;-81
2022/09/25 09:18:21;;;;;;;10.25;8.95;;;;;;;16.21;68.95;96223.38;6213086;22;20036;-81
2022/09/25 09:20:52;;;;;;;9.40;8.30;;;;;;;16.25;69.67;96229.00;6210842;22;20089;-80
2022/09/25 09:23:22;;;;;;;9.68;8.00;;;;;;;16.34;69.03;96222.38;6203874;23;20048;-82
2022/09/25 09:26:01;;;;;;;8.00;7.15;;;;;;;16.43;69.19;96228.09;6212205;22;20012;-81
2022/09/25 09:28:52;;;;;;;8.98;7.97;;;;;;;16.66;68.74;96230.75;6211951;22;20048;-81
2022/09/25 09:31:27;;;;;;;9.18;7.93;;;;;;;16.79;66.75;96227.09;6205834;23;20027;-82
2022/09/25 09:34:07;;;;;;;9.57;8.52;;;;;;;16.83;67.06;96227.44;6207042;22;20021;-82
2022/09/25 09:36:48;;;;;;;9.77;7.88;;;;;;;16.76;67.13;96230.16;6203915;22;20033;-82
2022/09/25 09:45:01;;;;;;;9.20;7.57;;;;;;;17.70;65.63;96232.63;6207697;22;20007;-81
2022/09/25 09:47:52;;;;;;;7.80;6.50;;;;;;;19.01;60.76;96224.72;6206097;22;20009;-79
2022/09/25 09:53:12;;;;;;;7.75;6.15;;;;;;;20.74;56.11;96227.53;6192646;23;20032;-79
2022/09/25 09:56:03;;;;;;;7.90;5.43;;;;;;;20.89;52.94;96230.28;6185840;23;20560;-78
2022/09/25 09:58:42;;;;;;;5.25;4.75;;;;;;;20.24;54.72;96228.72;6187512;23;20029;-80
2022/09/25 10:01:13;;;;;;;6.65;5.32;;;;;;;19.76;56.44;96221.38;6185630;23;20461;-79
2022/09/25 10:04:05;;;;;;;6.20;5.35;;;;;;;19.48;55.55;96224.22;6197291;23;20032;-80
2022/09/25 10:06:39;;;;;;;8.98;5.93;;;;;;;19.16;56.34;96218.84;6186891;23;20401;-80
2022/09/25 10:09:18;;;;;;;6.03;5.32;;;;;;;18.93;57.76;96213.53;6187707;23;20021;-80
2022/09/25 10:11:58;;;;;;;5.70;5.20;;;;;;;18.90;59.05;96214.00;6187218;23;20025;-80
2022/09/25 10:14:38;;;;;;;6.35;5.32;;;;;;;18.85;58.23;96216.59;6182567;23;20021;-79
2022/09/25 10:17:10;;;;;;;6.20;5.03;;;;;;;18.79;58.46;96214.91;6186283;23;20071;-79
2022/09/25 10:19:47;;;;;;;6.03;5.03;;;;;;;18.69;58.17;96214.72;6187028;23;20044;-79
2022/09/25 10:22:19;;;;;;;6.70;4.78;;;;;;;18.54;58.51;96215.28;6185799;23;20461;-81
2022/09/25 10:24:53;;;;;;;4.75;4.28;;;;;;;18.39;58.35;96215.88;6187662;23;20029;-82
2022/09/25 10:27:30;;;;;;;4.55;3.90;;;;;;;18.22;58.00;96209.81;6188886;23;20017;-78
2022/09/25 10:30:19;;;;;;;4.57;4.10;;;;;;;18.15;59.16;96209.13;6186738;23;20051;-78
2022/09/25 10:32:56;;;;;;;6.00;4.25;;;;;;;18.14;58.88;96207.56;6187246;23;20404;-80
2022/09/25 10:35:29;;;;;;;5.53;4.75;;;;;;;18.11;59.17;96208.84;6186962;23;20021;-82
2022/09/25 10:38:00;;;;;;;6.03;4.55;;;;;;;18.10;59.47;96208.03;6187541;23;20017;-82
2022/09/25 10:40:32;;;;;;;5.90;4.13;;;;;;;18.11;59.30;96206.19;6185012;23;20048;-81
2022/09/25 10:43:19;;;;;;;4.78;4.28;;;;;;;18.08;61.07;96204.84;6187475;23;20021;-82
2022/09/25 10:46:06;;;;;;;4.38;3.97;;;;;;;18.06;59.69;96219.28;6189994;23;20025;-81
2022/09/25 10:51:21;;;;;;;5.57;3.83;;;;;;;17.98;59.97;96220.50;6185716;23;20021;-83
2022/09/25 10:53:50;;;;;;;4.55;3.55;;;;;;;17.96;60.47;96219.94;6204510;23;20021;-80
2022/09/25 10:56:26;;;;;;;6.18;3.67;;;;;;;17.95;60.10;96215.69;6204078;23;20021;-80
2022/09/25 10:58:56;;;;;;;4.50;3.95;;;;;;;17.91;59.56;96217.22;6193689;23;20516;-79
2022/09/25 11:01:33;;;;;;;4.50;3.80;;;;;;;17.87;59.23;96224.78;6188054;23;20024;-79
2022/09/25 11:04:03;;;;;;;4.30;3.25;;;;;;;17.87;59.76;96229.28;6186836;23;20457;-79
2022/09/25 11:06:34;;;;;;;3.55;3.25;;;;;;;17.82;59.44;96223.88;6185990;23;20024;-81
2022/09/25 11:09:14;;;;;;;4.05;3.15;;;;;;;17.75;59.80;96221.38;6185800;23;20024;-79
2022/09/25 11:11:45;;;;;;;3.70;3.30;;;;;;;17.67;59.39;96225.19;6184804;23;20021;-79
2022/09/25 11:14:21;;;;;;;3.10;2.77;;;;;;;17.63;59.05;96223.28;6185333;23;20079;-79
2022/09/25 11:16:52;;;;;;;3.75;3.05;;;;;;;17.59;59.45;96225.56;6185806;23;20246;-79
2022/09/25 11:19:27;;;;;;;2.97;2.70;;;;;;;17.55;60.04;96226.28;6186613;23;20076;-77
2022/09/25 11:22:06;;;;;;;20.65;13.68;;;;;;;17.52;59.38;96224.91;6185035;23;20021;-76
2022/09/25 11:24:43;;;;;;;8.48;6.63;;;;;;;17.49;59.73;96222.72;6186016;23;20301;-78
2022/09/25 11:27:18;;;;;;;7.18;6.38;;;;;;;17.47;60.25;96220.34;6186473;23;20025;-77
2022/09/25 11:29:57;;;;;;;5.75;5.10;;;;;;;17.46;60.10;96225.84;6209456;23;20025;-77
2022/09/25 11:32:32;;;;;;;5.68;3.65;;;;;;;17.50;59.87;96221.69;6199351;23;20024;-77
2022/09/25 11:35:18;;;;;;;3.40;3.10;;;;;;;17.57;59.89;96222.34;6188882;23;20515;-79
2022/09/25 11:37:56;;;;;;;4.28;3.33;;;;;;;17.65;60.12;96216.72;6186522;23;20029;-79
2022/09/25 11:43:30;;;;;;;3.55;3.25;;;;;;;17.76;58.52;96215.06;6189757;23;20033;-78
2022/09/25 11:46:01;;;;;;;6.03;4.45;;;;;;;17.76;58.33;96214.28;6188153;23;20080;-78
2022/09/25 11:48:39;;;;;;;60.05;42.88;;;;;;;17.76;58.28;96201.09;6187423;23;20021;-78
2022/09/25 11:51:17;;;;;;;11.55;8.95;;;;;;;17.75;58.46;96199.47;6185585;23;20031;-78
2022/09/25 11:53:55;;;;;;;11.35;6.00;;;;;;;17.78;58.55;96204.28;6186489;23;20076;-77
2022/09/25 11:56:52;;;;;;;4.85;4.38;;;;;;;17.86;58.52;96207.38;6187574;23;20021;-77
2022/09/25 11:59:37;;;;;;;4.63;4.10;;;;;;;17.91;58.82;96202.16;6186454;23;20025;-78
2022/09/25 12:02:19;;;;;;;4.70;4.22;;;;;;;17.91;58.34;96201.38;6184499;23;20025;-78
2022/09/25 12:05:05;;;;;;;6.60;4.47;;;;;;;17.86;58.14;96203.91;6185744;23;20032;-83
2022/09/25 12:07:51;;;;;;;5.18;4.68;;;;;;;17.79;57.70;96203.22;6184902;23;20028;-78
2022/09/25 12:10:36;;;;;;;6.30;4.47;;;;;;;17.73;59.54;96204.19;6184784;23;20075;-75
2022/09/25 12:13:15;;;;;;;7.85;4.78;;;;;;;17.73;58.29;96207.59;6185522;23;20536;-79
2022/09/25 12:15:53;;;;;;;5.88;5.28;;;;;;;17.73;58.46;96206.81;6185155;23;20021;-80
2022/09/25 12:18:37;;;;;;;6.65;5.40;;;;;;;17.64;58.42;96203.75;6185442;23;20083;-78
2022/09/25 12:21:09;;;;;;;6.15;5.18;;;;;;;17.51;59.16;96202.19;6187056;23;20021;-79
2022/09/25 12:23:39;;;;;;;;;;;;;;;17.42;59.55;96201.78;6187717;23;20029;-80